Time;durP1;ratioP1;P1;durP2;ratioP2;P2;SDS_P1;SDS_P2;PMS_P1;PMS_P2;Temp;Humidity;BMP_temperature;BMP_pressure;BME280_temperature;BME280_humidity;BME280_pressure;Samples;Min_cycle;Max_cycle;Signal;HPM_P1;HPM_P2
2023/01/06 00:02:24;;;;;;;2.47;2.00;;;17.10;67.90;18.30;101054.00;;;;5008272;28;20216;-45
2023/01/06 00:04:49;;;;;;;2.87;2.10;;;17.20;67.90;18.30;101149.00;;;;5008570;28;20194;-45
2023/01/06 00:07:15;;;;;;;2.53;2.00;;;17.10;67.90;18.30;101147.00;;;;4991832;28;20193;-45
2023/01/06 00:09:41;;;;;;;2.10;1.90;;;17.10;67.80;18.30;101140.00;;;;5008813;28;20197;-45
2023/01/06 00:12:07;;;;;;;4.37;2.20;;;17.10;67.80;18.20;101136.00;;;;4991167;28;20557;-45
2023/01/06 00:14:32;;;;;;;2.80;2.10;;;17.10;67.70;18.20;101064.00;;;;5008605;28;20573;-44
2023/01/06 00:16:58;;;;;;;2.70;1.93;;;17.10;67.80;18.20;101137.00;;;;4991847;28;20182;-44
2023/01/06 00:19:24;;;;;;;2.97;1.90;;;17.10;67.80;18.20;101147.00;;;;5007858;28;20669;-44
2023/01/06 00:21:50;;;;;;;2.63;1.93;;;17.10;67.90;18.20;101122.00;;;;4991580;28;20219;-46
2023/01/06 00:24:15;;;;;;;3.13;2.10;;;17.10;67.90;18.20;101130.00;;;;5008170;28;20216;-45
2023/01/06 00:26:41;;;;;;;2.70;2.00;;;17.00;67.90;18.20;101035.00;;;;5007859;28;20261;-46
2023/01/06 00:29:09;;;;;;;2.80;2.10;;;17.00;67.70;18.20;101138.00;;;;5008299;28;20215;-44
2023/01/06 00:31:35;;;;;;;3.17;2.00;;;17.00;67.80;18.20;101132.00;;;;4991426;28;20229;-45
2023/01/06 00:34:01;;;;;;;2.87;1.97;;;17.00;67.80;18.20;101130.00;;;;5008344;28;20204;-44
2023/01/06 00:36:27;;;;;;;2.27;1.80;;;17.00;67.80;18.20;101050.00;;;;4993260;28;20175;-46
2023/01/06 00:38:53;;;;;;;2.00;1.70;;;17.00;67.80;18.10;101052.00;;;;5011502;28;20176;-45
2023/01/06 00:44:03;;;;;;;3.50;2.00;;;17.00;67.80;18.10;101054.00;;;;5009234;28;20475;-45
2023/01/06 00:46:30;;;;;;;2.50;1.90;;;16.90;67.70;18.10;101120.00;;;;5008149;28;20176;-45
2023/01/06 00:48:56;;;;;;;2.93;1.90;;;16.90;67.70;18.10;101049.00;;;;4991219;28;20223;-45
2023/01/06 00:51:22;;;;;;;2.93;1.90;;;16.90;67.80;18.10;101118.00;;;;4991446;28;20203;-45
2023/01/06 00:53:48;;;;;;;3.33;1.90;;;16.90;68.00;18.10;101107.00;;;;5007878;28;20214;-45
2023/01/06 00:56:14;;;;;;;2.83;1.93;;;16.90;68.00;18.00;101019.00;;;;5015777;28;20168;-44
2023/01/06 00:58:39;;;;;;;1.90;1.70;;;16.90;67.70;18.00;101109.00;;;;5017277;28;20196;-44
2023/01/06 01:01:06;;;;;;;3.30;2.00;;;16.90;67.60;18.00;101101.00;;;;5017010;28;20415;-44
2023/01/06 01:03:33;;;;;;;2.37;1.57;;;16.80;67.70;18.00;101091.00;;;;5008389;28;20204;-44
2023/01/06 01:06:04;;;;;;;2.70;1.90;;;16.80;67.70;18.00;101028.00;;;;5008592;28;20241;-44
2023/01/06 01:08:30;;;;;;;2.20;1.90;;;16.80;68.20;18.00;101099.00;;;;4991872;28;20691;-45
2023/01/06 01:11:01;;;;;;;2.93;2.20;;;16.80;67.40;17.90;101096.00;;;;5007864;28;20168;-45
2023/01/06 01:13:27;;;;;;;3.40;2.13;;;16.80;67.50;17.90;101016.00;;;;5007657;28;20160;-46
2023/01/06 01:15:53;;;;;;;2.67;2.00;;;16.70;67.40;17.90;101095.00;;;;5007734;28;20198;-45
2023/01/06 01:18:18;;;;;;;2.80;2.20;;;16.70;67.60;17.90;101092.00;;;;4991078;28;20190;-45
2023/01/06 01:20:45;;;;;;;3.23;2.03;;;16.70;67.40;17.90;101019.00;;;;5007713;28;20186;-45
2023/01/06 01:23:12;;;;;;;2.47;1.93;;;16.80;67.50;17.90;101011.00;;;;5008461;28;20528;-45
2023/01/06 01:25:39;;;;;;;2.37;2.00;;;16.70;67.30;17.80;101033.00;;;;5011370;28;20187;-45
2023/01/06 01:28:05;;;;;;;3.53;2.33;;;16.80;67.30;17.80;101101.00;;;;5011136;28;20191;-45
2023/01/06 01:30:31;;;;;;;3.20;2.13;;;16.80;67.10;17.80;101108.00;;;;4995179;28;20318;-46
2023/01/06 01:32:57;;;;;;;3.23;2.10;;;16.70;67.00;17.80;101018.00;;;;5011097;28;20250;-44
2023/01/06 01:35:23;;;;;;;2.37;1.80;;;16.70;67.00;17.80;101093.00;;;;4994739;28;20309;-45
2023/01/06 01:37:48;;;;;;;2.70;1.90;;;16.60;67.10;17.80;101101.00;;;;5011353;28;20636;-45
2023/01/06 01:40:15;;;;;;;2.87;1.97;;;16.60;67.40;17.80;101107.00;;;;4994607;28;20187;-48
2023/01/06 01:42:41;;;;;;;3.27;2.27;;;16.60;67.30;17.70;101117.00;;;;4994459;28;20223;-44
2023/01/06 01:45:24;;;;;;;2.87;2.20;;;16.70;67.20;17.50;101112.00;;;;5010809;28;20501;-45
2023/01/06 01:48:21;;;;;;;3.67;2.00;;;16.60;67.20;17.70;101109.00;;;;4994762;28;20192;-45
2023/01/06 01:50:50;;;;;;;3.23;2.10;;;16.60;67.20;17.70;101110.00;;;;4997589;28;20172;-46
2023/01/06 01:53:29;;;;;;;2.40;1.90;;;16.50;67.30;17.70;101033.00;;;;5014676;28;20194;-45
2023/01/06 01:55:57;;;;;;;2.10;1.90;;;16.50;67.40;17.70;101030.00;;;;4994917;28;20221;-45
2023/01/06 01:58:26;;;;;;;2.57;1.60;;;16.50;67.50;17.70;101110.00;;;;5011100;28;20613;-45
2023/01/06 02:00:52;;;;;;;2.87;2.20;;;16.40;67.50;17.70;101104.00;;;;5010945;28;20226;-45
2023/01/06 02:03:19;;;;;;;2.83;1.90;;;16.50;67.40;17.70;101101.00;;;;5010235;28;20201;-45
2023/01/06 02:05:52;;;;;;;3.30;1.87;;;16.40;67.40;17.60;101091.00;;;;4992277;28;20200;-44
2023/01/06 02:08:35;;;;;;;2.13;1.80;;;16.50;67.50;17.70;101085.00;;;;5010428;28;20184;-45
2023/01/06 02:11:01;;;;;;;3.13;1.90;;;16.40;67.40;17.60;101008.00;;;;4994158;28;20748;-45
2023/01/06 02:13:26;;;;;;;2.00;1.80;;;16.40;67.30;17.60;101096.00;;;;4994010;28;20176;-45
2023/01/06 02:16:00;;;;;;;3.10;2.00;;;16.40;67.10;17.60;101091.00;;;;5011645;28;20231;-45
2023/01/06 02:18:34;;;;;;;2.77;1.90;;;16.40;67.00;17.60;101080.00;;;;5010086;28;20669;-45
2023/01/06 02:21:24;;;;;;;2.20;2.00;;;16.40;67.00;17.60;101078.00;;;;5010626;28;20469;-45
2023/01/06 02:24:34;;;;;;;2.90;2.10;;;16.40;66.80;17.60;101070.00;;;;4993753;28;20280;-45
2023/01/06 02:27:24;;;;;;;3.80;2.10;;;16.40;66.40;17.50;101067.00;;;;4993831;28;20167;-46
2023/01/06 02:30:29;;;;;;;3.37;1.93;;;16.50;66.00;17.50;101077.00;;;;5011177;28;20653;-44
2023/01/06 02:33:23;;;;;;;2.70;1.97;;;16.50;65.80;17.50;101062.00;;;;5010212;28;20152;-46
2023/01/06 02:35:49;;;;;;;3.27;1.90;;;16.50;65.70;17.50;100998.00;;;;5006329;28;20229;-47
2023/01/06 02:38:33;;;;;;;2.00;1.80;;;16.40;65.50;17.50;101052.00;;;;5011284;28;20637;-44
2023/01/06 02:41:33;;;;;;;3.87;1.97;;;16.40;65.80;17.40;101059.00;;;;5010390;28;20170;-46
2023/01/06 02:44:16;;;;;;;2.80;2.00;;;16.40;65.70;17.40;101059.00;;;;5009954;28;20204;-44
2023/01/06 02:47:09;;;;;;;3.67;1.70;;;16.40;65.50;17.40;101048.00;;;;5010540;28;20720;-45
2023/01/06 02:50:14;;;;;;;3.20;2.10;;;16.40;65.50;17.40;101031.00;;;;5009712;28;20223;-45
2023/01/06 02:53:04;;;;;;;2.77;1.87;;;16.30;65.40;17.40;101044.00;;;;5009573;28;20652;-47
2023/01/06 02:55:38;;;;;;;3.40;1.97;;;16.30;65.10;17.40;101045.00;;;;5011290;28;20200;-46
2023/01/06 02:58:19;;;;;;;3.70;2.00;;;16.30;65.00;17.30;100974.00;;;;4993149;28;20633;-45
2023/01/06 03:01:03;;;;;;;3.37;1.80;;;16.30;65.00;17.30;100946.00;;;;5009639;28;20175;-45
2023/01/06 03:03:32;;;;;;;2.73;1.93;;;16.30;65.00;17.30;101026.00;;;;5009337;28;20223;-46
2023/01/06 03:06:03;;;;;;;3.13;2.00;;;16.30;64.80;17.30;101025.00;;;;4976897;28;20198;-45
2023/01/06 03:08:29;;;;;;;3.17;1.90;;;16.30;64.80;17.30;101021.00;;;;4993116;28;20175;-46
2023/01/06 03:10:55;;;;;;;3.63;1.87;;;16.30;64.60;17.30;101031.00;;;;5009059;28;20190;-45
2023/01/06 03:14:03;;;;;;;2.23;1.70;;;16.20;64.50;17.30;101009.00;;;;5009394;28;20178;-45
2023/01/06 03:16:29;;;;;;;2.77;1.90;;;16.20;64.90;17.30;101032.00;;;;5001468;28;20179;-44
2023/01/06 03:18:55;;;;;;;3.07;1.80;;;16.20;64.70;17.30;101001.00;;;;5009359;28;20188;-46
2023/01/06 03:21:27;;;;;;;2.53;1.80;;;16.20;64.70;17.30;101026.00;;;;5010026;28;20673;-45
2023/01/06 03:23:53;;;;;;;3.90;2.03;;;16.20;64.50;17.30;100952.00;;;;5012189;28;20260;-43
2023/01/06 03:26:19;;;;;;;2.17;1.73;;;16.10;64.70;17.20;101032.00;;;;5012782;28;20230;-46
2023/01/06 03:28:44;;;;;;;2.77;1.80;;;16.20;64.90;17.20;101016.00;;;;5010115;28;20237;-46
2023/01/06 03:31:48;;;;;;;2.77;1.90;;;16.10;64.50;17.20;101029.00;;;;5008840;28;20660;-45
2023/01/06 03:35:05;;;;;;;3.23;1.90;;;16.20;64.80;17.20;101036.00;;;;4991897;28;20291;-45
2023/01/06 03:37:57;;;;;;;3.17;2.20;;;16.00;65.10;17.20;101022.00;;;;5008154;28;20271;-45
2023/01/06 03:40:47;;;;;;;3.73;2.20;;;16.00;65.10;17.20;101026.00;;;;5004027;28;20184;-44
2023/01/06 03:43:32;;;;;;;2.70;1.70;;;16.00;64.60;17.10;101025.00;;;;5008814;28;20692;-44
2023/01/06 03:46:30;;;;;;;3.10;1.90;;;16.10;64.40;17.10;101014.00;;;;5008120;28;20192;-45
2023/01/06 03:48:56;;;;;;;3.40;1.73;;;16.10;64.30;17.10;100955.00;;;;5008860;28;20161;-44
2023/01/06 03:51:31;;;;;;;2.80;1.93;;;16.10;64.50;17.10;101004.00;;;;5008436;28;20234;-46
2023/01/06 03:54:02;;;;;;;3.67;1.80;;;16.00;64.60;17.10;101006.00;;;;5008808;28;20183;-46
2023/01/06 03:56:46;;;;;;;3.27;2.03;;;16.00;64.40;17.10;101017.00;;;;5008423;28;20168;-44
2023/01/06 03:59:16;;;;;;;5.27;1.93;;;16.10;64.50;17.10;101022.00;;;;5008557;28;20171;-44
2023/01/06 04:01:42;;;;;;;3.73;2.07;;;16.10;64.30;17.10;100968.00;;;;5008259;28;20187;-45
2023/01/06 04:04:08;;;;;;;4.53;2.10;;;16.10;64.10;17.00;100992.00;;;;4992024;28;20208;-46
2023/01/06 04:06:33;;;;;;;4.23;2.10;;;16.10;64.10;17.10;100990.00;;;;5008326;28;20191;-45
2023/01/06 04:08:59;;;;;;;4.27;2.20;;;16.00;63.90;17.00;100982.00;;;;5008190;28;20664;-44
2023/01/06 04:14:09;;;;;;;5.50;1.93;;;16.00;63.60;17.00;100995.00;;;;5009668;28;20218;-45
2023/01/06 04:16:35;;;;;;;2.73;1.80;;;16.00;63.50;17.00;100998.00;;;;5009399;28;20601;-45
2023/01/06 04:19:00;;;;;;;3.77;2.00;;;16.00;63.50;17.00;100985.00;;;;4991796;28;20188;-45
2023/01/06 04:21:26;;;;;;;3.60;2.07;;;16.00;63.50;17.00;100988.00;;;;5008118;28;20190;-46
2023/01/06 04:23:52;;;;;;;3.47;1.90;;;16.00;63.30;17.00;100981.00;;;;4991925;28;20200;-46
2023/01/06 04:26:17;;;;;;;3.13;1.87;;;16.00;63.10;17.00;100990.00;;;;5008379;28;20172;-46
2023/01/06 04:28:43;;;;;;;2.33;1.63;;;16.00;62.80;16.90;100987.00;;;;4991950;28;20672;-44
2023/01/06 04:31:10;;;;;;;3.67;1.70;;;15.90;62.70;16.90;100985.00;;;;4991750;28;20168;-45
2023/01/06 04:33:36;;;;;;;3.07;1.67;;;15.90;62.80;16.90;100982.00;;;;5007895;28;20167;-46
2023/01/06 04:36:02;;;;;;;2.33;1.63;;;15.90;62.60;16.70;100972.00;;;;5008138;28;20178;-44
2023/01/06 04:38:27;;;;;;;3.13;1.70;;;15.90;62.40;16.90;100987.00;;;;4991898;28;20176;-51
2023/01/06 04:40:53;;;;;;;2.40;1.70;;;15.90;62.30;16.90;100969.00;;;;4991876;28;20176;-44
2023/01/06 04:43:19;;;;;;;2.07;1.70;;;15.90;62.30;16.90;100895.00;;;;5007907;28;20203;-46
2023/01/06 04:45:45;;;;;;;2.87;1.70;;;15.90;62.30;16.90;100962.00;;;;4991879;28;20201;-45
2023/01/06 04:48:11;;;;;;;2.33;1.67;;;15.90;62.40;16.90;100931.00;;;;5012411;28;20175;-44
2023/01/06 04:50:37;;;;;;;2.27;1.70;;;15.90;62.40;16.90;100890.00;;;;5009059;28;20239;-45
2023/01/06 04:53:04;;;;;;;3.47;1.70;;;15.90;62.30;16.80;100882.00;;;;5008422;28;20167;-45
2023/01/06 04:55:29;;;;;;;2.13;1.63;;;15.80;62.20;16.80;100870.00;;;;4992363;28;20191;-45
2023/01/06 04:57:55;;;;;;;1.87;1.60;;;15.80;62.30;16.80;100947.00;;;;4988954;28;20199;-45
2023/01/06 05:00:21;;;;;;;2.80;1.73;;;15.80;62.50;16.80;100950.00;;;;5011664;28;20763;-45
2023/01/06 05:02:47;;;;;;;1.80;1.70;;;15.80;63.00;16.80;100844.00;;;;4995027;28;20187;-46
2023/01/06 05:05:13;;;;;;;2.00;1.60;;;15.80;62.30;16.80;100957.00;;;;4996428;28;20235;-46
2023/01/06 05:07:39;;;;;;;5.27;1.90;;;15.70;62.20;16.70;100958.00;;;;5020488;28;20201;-45
2023/01/06 05:10:06;;;;;;;3.17;2.03;;;15.70;63.50;16.70;100942.00;;;;5022232;28;20648;-46
2023/01/06 05:12:32;;;;;;;7.10;1.80;;;15.60;63.10;16.70;100951.00;;;;5002370;28;20663;-44
2023/01/06 05:14:58;;;;;;;3.73;1.60;;;15.70;63.20;16.70;100953.00;;;;5012700;28;20195;-44
2023/01/06 05:17:24;;;;;;;2.67;1.80;;;15.70;63.00;16.70;100941.00;;;;4998623;28;20186;-45
2023/01/06 05:19:49;;;;;;;3.77;1.97;;;15.70;62.80;16.70;100875.00;;;;5010857;28;20246;-44
2023/01/06 05:22:15;;;;;;;3.53;1.70;;;15.70;62.70;16.70;100954.00;;;;5009527;28;20200;-44
2023/01/06 05:24:41;;;;;;;6.50;2.27;;;15.70;62.70;16.70;100853.00;;;;4997452;28;20211;-44
2023/01/06 05:27:07;;;;;;;10.57;2.63;;;15.60;62.90;16.70;100930.00;;;;4977441;28;20553;-44
2023/01/06 05:29:33;;;;;;;7.63;2.50;;;15.70;62.80;16.70;100861.00;;;;4993126;28;20175;-46
2023/01/06 05:31:59;;;;;;;7.73;2.63;;;15.70;62.60;16.70;100962.00;;;;4991887;28;20745;-44
2023/01/06 05:34:24;;;;;;;6.40;2.40;;;15.70;62.50;16.60;100963.00;;;;4991810;28;20200;-46
2023/01/06 05:36:50;;;;;;;3.43;2.20;;;15.70;62.60;16.60;100947.00;;;;4991786;28;20173;-44
2023/01/06 05:39:16;;;;;;;6.47;2.20;;;15.70;62.30;16.60;100861.00;;;;4992249;28;20618;-45
2023/01/06 05:41:41;;;;;;;5.33;2.20;;;15.70;62.30;16.60;100954.00;;;;4992138;28;20208;-45
2023/01/06 05:44:07;;;;;;;4.93;2.00;;;15.70;62.50;16.60;100861.00;;;;5008119;28;20231;-44
2023/01/06 05:46:33;;;;;;;3.17;1.90;;;15.60;62.60;16.60;100956.00;;;;4991320;28;20645;-44
2023/01/06 05:48:59;;;;;;;4.10;2.30;;;15.60;62.40;16.60;100948.00;;;;4991959;28;20315;-45
2023/01/06 05:51:25;;;;;;;4.70;1.97;;;15.60;62.30;16.30;100873.00;;;;4991345;28;20175;-44
2023/01/06 05:53:51;;;;;;;3.07;2.00;;;15.60;62.40;16.50;100946.00;;;;4991604;28;20185;-45
2023/01/06 05:56:18;;;;;;;3.33;1.90;;;15.60;61.90;16.50;100855.00;;;;4991027;28;20176;-45
2023/01/06 05:58:47;;;;;;;2.63;1.80;;;15.70;62.10;16.50;100928.00;;;;4991796;28;20665;-46
2023/01/06 06:01:24;;;;;;;2.10;1.53;;;15.60;61.80;16.50;100862.00;;;;4991004;28;20183;-43
2023/01/06 06:03:50;;;;;;;2.10;1.60;;;15.60;61.70;16.50;100863.00;;;;4991134;28;20196;-45
2023/01/06 06:06:16;;;;;;;2.67;1.63;;;15.60;61.60;16.40;100964.00;;;;4975118;28;20215;-45
2023/01/06 06:08:42;;;;;;;3.63;1.70;;;15.60;61.50;16.40;100957.00;;;;4991031;28;20242;-45
2023/01/06 06:11:10;;;;;;;2.13;1.57;;;15.60;61.50;16.40;100950.00;;;;4998425;28;20180;-43
2023/01/06 06:13:36;;;;;;;2.00;1.47;;;15.60;61.50;16.40;100942.00;;;;4997814;28;20186;-45
2023/01/06 06:16:03;;;;;;;8.47;2.00;;;15.50;61.30;16.40;100868.00;;;;4990917;28;20176;-45
2023/01/06 06:18:29;;;;;;;2.33;1.30;;;15.50;61.50;16.30;100946.00;;;;5007287;28;20676;-45
2023/01/06 06:21:02;;;;;;;3.83;1.37;;;15.50;61.30;16.40;100949.00;;;;4991101;28;20189;-46
2023/01/06 06:23:29;;;;;;;2.43;1.50;;;15.40;61.80;16.40;100959.00;;;;4974802;28;20235;-45
2023/01/06 06:25:55;;;;;;;1.60;1.30;;;15.30;62.30;16.40;100963.00;;;;4991138;28;20207;-45
2023/01/06 06:28:20;;;;;;;1.37;1.00;;;15.40;62.70;16.40;100964.00;;;;4990331;28;20172;-45
2023/01/06 06:30:46;;;;;;;1.57;1.20;;;15.40;62.70;16.50;100949.00;;;;4991010;28;20203;-44
2023/01/06 06:33:12;;;;;;;1.37;1.27;;;15.40;62.70;16.50;100954.00;;;;4990175;28;20212;-45
2023/01/06 06:35:38;;;;;;;4.07;1.30;;;15.40;62.70;16.50;100863.00;;;;4990846;28;20235;-45
2023/01/06 06:38:03;;;;;;;1.77;1.20;;;15.40;62.80;16.50;100958.00;;;;4990851;28;20199;-44
2023/01/06 06:40:29;;;;;;;1.90;1.30;;;15.40;62.80;16.50;100947.00;;;;5005003;28;20246;-45
2023/01/06 06:42:56;;;;;;;1.57;1.00;;;15.50;62.90;16.60;100951.00;;;;4957190;28;20685;-45
2023/01/06 06:45:22;;;;;;;1.50;1.40;;;15.40;62.90;16.60;100952.00;;;;4958202;28;20222;-46
2023/01/06 06:47:48;;;;;;;2.10;1.43;;;15.50;63.00;16.60;100953.00;;;;4958006;28;20172;-44
2023/01/06 06:50:14;;;;;;;1.53;1.20;;;15.40;62.90;16.60;100880.00;;;;4974409;28;20192;-45
2023/01/06 06:52:39;;;;;;;2.10;1.30;;;15.40;63.10;16.60;100866.00;;;;4958540;28;20550;-45
2023/01/06 06:55:05;;;;;;;1.40;1.30;;;15.40;63.20;16.60;100941.00;;;;4990216;28;20267;-46
2023/01/06 06:57:31;;;;;;;1.80;1.30;;;15.40;63.30;16.50;100928.00;;;;4991353;28;20184;-44
2023/01/06 06:59:57;;;;;;;1.30;1.20;;;15.40;63.30;16.50;100844.00;;;;4959568;28;20183;-44
2023/01/06 07:02:23;;;;;;;1.33;1.20;;;15.50;63.60;16.60;100934.00;;;;4990015;28;20295;-45
2023/01/06 07:04:48;;;;;;;1.27;1.13;;;15.40;63.50;16.50;100918.00;;;;4991165;28;20199;-44
2023/01/06 07:07:14;;;;;;;0.87;0.87;;;15.40;63.60;16.50;100931.00;;;;4990110;28;20319;-43
2023/01/06 07:09:40;;;;;;;1.47;1.23;;;15.40;63.60;16.60;100933.00;;;;4958177;28;20713;-45
2023/01/06 07:12:06;;;;;;;1.30;1.20;;;15.40;63.70;16.60;100859.00;;;;4973464;28;20184;-45
2023/01/06 07:14:32;;;;;;;1.63;1.30;;;15.40;63.70;16.60;100852.00;;;;4941611;28;20279;-45
2023/01/06 07:17:01;;;;;;;1.40;1.30;;;15.40;63.90;16.50;100932.00;;;;4974000;28;20271;-45
2023/01/06 07:19:27;;;;;;;1.60;1.23;;;15.40;63.90;16.50;100932.00;;;;4957483;28;20223;-44
2023/01/06 07:21:52;;;;;;;1.60;1.27;;;15.30;63.90;16.50;100925.00;;;;4957645;28;20190;-43
2023/01/06 07:24:18;;;;;;;1.47;1.07;;;15.30;64.10;16.50;100837.00;;;;4957611;28;20708;-44
2023/01/06 07:26:44;;;;;;;0.93;0.90;;;15.40;64.30;16.50;100834.00;;;;4972676;28;20645;-44
2023/01/06 07:29:09;;;;;;;0.97;0.97;;;15.40;64.30;16.50;100908.00;;;;4973163;28;20172;-46
2023/01/06 07:31:35;;;;;;;1.33;1.20;;;15.30;64.30;16.50;100812.00;;;;4990236;28;20175;-45
2023/01/06 07:34:01;;;;;;;1.13;1.03;;;15.30;64.30;16.50;100804.00;;;;4973676;28;20192;-44
2023/01/06 07:36:27;;;;;;;1.20;1.10;;;15.30;64.30;16.50;100822.00;;;;4956845;28;20218;-43
2023/01/06 07:38:52;;;;;;;1.33;1.23;;;15.30;64.30;16.50;100918.00;;;;4957295;28;20172;-45
2023/01/06 07:41:18;;;;;;;1.03;1.00;;;15.40;64.40;16.50;100900.00;;;;4973424;28;20307;-46
2023/01/06 07:43:44;;;;;;;1.20;1.10;;;15.40;64.40;16.20;100915.00;;;;4973121;28;20200;-45
2023/01/06 07:46:09;;;;;;;1.13;1.00;;;15.30;64.30;16.50;100935.00;;;;4957183;28;20180;-45
2023/01/06 07:48:36;;;;;;;1.40;1.30;;;15.40;64.50;16.50;100940.00;;;;4991633;28;20169;-44
2023/01/06 07:51:02;;;;;;;1.37;1.27;;;15.40;64.40;16.50;100947.00;;;;4973624;28;20287;-44
2023/01/06 07:53:28;;;;;;;0.90;0.90;;;15.30;64.30;16.50;100946.00;;;;4974525;28;20172;-43
2023/01/06 07:55:53;;;;;;;1.20;1.10;;;15.40;64.40;16.50;100940.00;;;;4988735;28;20724;-44
2023/01/06 07:58:20;;;;;;;1.63;1.20;;;15.40;64.40;16.50;100873.00;;;;4990029;28;20172;-45
2023/01/06 08:00:45;;;;;;;1.50;1.40;;;15.30;64.30;16.50;100944.00;;;;4957560;28;20287;-46
2023/01/06 08:03:11;;;;;;;1.80;0.90;;;15.40;64.60;16.50;100953.00;;;;4989537;28;20705;-46
2023/01/06 08:05:41;;;;;;;1.10;1.00;;;15.50;64.90;16.60;100942.00;;;;4972841;28;20296;-46
2023/01/06 08:08:07;;;;;;;1.83;1.50;;;15.40;64.90;16.60;100947.00;;;;4957520;28;20168;-45
2023/01/06 08:10:32;;;;;;;0.97;0.93;;;15.50;65.10;16.60;100876.00;;;;4957040;28;20179;-44
2023/01/06 08:12:58;;;;;;;1.30;1.00;;;15.50;65.00;16.60;100938.00;;;;4955678;28;20180;-44
2023/01/06 08:15:24;;;;;;;1.13;1.03;;;15.50;65.30;16.60;100959.00;;;;4972687;28;20192;-43
2023/01/06 08:17:53;;;;;;;1.50;0.90;;;15.60;65.40;16.60;100875.00;;;;4988300;28;20203;-45
2023/01/06 08:20:20;;;;;;;4.63;1.10;;;15.50;65.60;16.60;100955.00;;;;4957155;28;20190;-46
2023/01/06 08:22:46;;;;;;;0.93;0.93;;;15.50;65.40;16.60;100940.00;;;;4975996;28;20197;-47
2023/01/06 08:25:11;;;;;;;4.13;1.53;;;15.50;65.20;16.60;100949.00;;;;4962422;28;20207;-44
2023/01/06 08:27:37;;;;;;;3.03;1.40;;;15.50;65.30;16.60;100885.00;;;;4979683;28;20179;-45
2023/01/06 08:30:03;;;;;;;4.73;1.13;;;15.60;65.50;16.60;100947.00;;;;4974069;28;20246;-46
2023/01/06 08:32:29;;;;;;;1.63;1.33;;;15.60;65.60;16.70;100963.00;;;;4988519;28;20538;-46
2023/01/06 08:34:55;;;;;;;3.13;1.60;;;15.70;65.90;16.70;100961.00;;;;4956698;28;20196;-45
2023/01/06 08:37:20;;;;;;;2.37;1.20;;;15.90;65.70;16.70;100918.00;;;;4971184;28;20172;-45
2023/01/06 08:39:46;;;;;;;3.03;1.27;;;15.90;65.30;16.80;100956.00;;;;4972182;28;20177;-44
2023/01/06 08:42:12;;;;;;;2.47;1.20;;;16.00;65.00;16.80;100965.00;;;;4988389;28;20229;-45
2023/01/06 08:44:38;;;;;;;2.23;1.30;;;16.20;65.10;16.90;100946.00;;;;4988147;28;20323;-45
2023/01/06 08:47:03;;;;;;;1.40;1.03;;;16.30;64.80;17.00;100960.00;;;;4955883;28;20271;-44
2023/01/06 08:49:29;;;;;;;1.70;1.20;;;16.40;64.60;17.10;100967.00;;;;4972535;28;20164;-45
2023/01/06 08:51:55;;;;;;;2.23;1.00;;;16.60;64.40;17.20;100917.00;;;;4988849;28;20181;-45
2023/01/06 08:54:21;;;;;;;1.10;1.00;;;16.80;64.30;17.30;100965.00;;;;4971888;28;20211;-45
2023/01/06 08:56:46;;;;;;;1.13;0.90;;;16.90;64.10;17.40;100960.00;;;;4988986;28;20226;-45
2023/01/06 08:59:14;;;;;;;1.40;1.07;;;17.00;63.70;17.50;100988.00;;;;4961287;28;20211;-45
2023/01/06 09:01:40;;;;;;;2.90;1.10;;;17.20;63.70;17.60;100994.00;;;;4976070;28;20180;-45
2023/01/06 09:04:06;;;;;;;1.27;1.10;;;17.40;63.30;17.70;100929.00;;;;4956157;28;20212;-46
2023/01/06 09:06:32;;;;;;;2.50;1.23;;;17.50;63.20;17.80;100992.00;;;;4955631;28;20172;-45
2023/01/06 09:08:59;;;;;;;1.00;0.90;;;17.60;63.00;17.90;100991.00;;;;4956189;28;20177;-46
2023/01/06 09:11:25;;;;;;;1.43;1.10;;;17.70;63.00;18.10;100998.00;;;;4989718;28;20173;-44
2023/01/06 09:13:50;;;;;;;0.97;0.80;;;17.90;62.90;18.20;100885.00;;;;5000061;28;20184;-45
2023/01/06 09:16:16;;;;;;;2.80;1.00;;;17.90;62.70;18.30;100912.00;;;;4987574;28;20173;-44
2023/01/06 09:18:49;;;;;;;1.73;0.90;;;18.00;62.90;18.30;100908.00;;;;4994941;28;20216;-46
2023/01/06 09:21:17;;;;;;;1.60;1.17;;;18.10;63.40;18.40;100992.00;;;;4999390;28;20172;-45
2023/01/06 09:23:43;;;;;;;1.57;0.80;;;18.20;63.40;18.50;100983.00;;;;4996792;28;20223;-45
2023/01/06 09:26:09;;;;;;;2.63;1.40;;;18.20;63.30;18.60;100989.00;;;;5004006;28;20204;-44
2023/01/06 09:28:34;;;;;;;1.20;0.90;;;18.20;63.50;18.60;100916.00;;;;4989381;28;20546;-44
2023/01/06 09:31:00;;;;;;;1.13;1.00;;;18.20;63.60;18.70;100913.00;;;;4991467;28;20164;-46
2023/01/06 09:33:26;;;;;;;2.00;0.97;;;18.20;63.70;18.70;101005.00;;;;4991058;28;20178;-44
2023/01/06 09:35:52;;;;;;;2.47;1.00;;;18.30;64.70;18.70;100909.00;;;;5006194;28;20287;-45
2023/01/06 09:38:17;;;;;;;0.90;0.90;;;18.20;63.80;18.70;100951.00;;;;5007493;28;20174;-45
2023/01/06 09:41:03;;;;;;;1.07;0.97;;;18.20;64.10;18.50;100996.00;;;;5007602;28;20722;-45
2023/01/06 09:43:51;;;;;;;1.53;1.20;;;18.20;64.30;18.80;100999.00;;;;5007253;28;20268;-43
2023/01/06 09:46:28;;;;;;;2.23;1.00;;;18.20;64.40;18.80;101017.00;;;;5010284;28;20713;-44
2023/01/06 09:49:24;;;;;;;1.00;1.00;;;18.20;64.40;18.80;101012.00;;;;5011331;28;20246;-45
2023/01/06 09:51:56;;;;;;;0.80;0.80;;;18.20;64.70;18.50;101023.00;;;;5009336;28;20181;-44
2023/01/06 09:54:35;;;;;;;2.20;0.83;;;18.10;64.70;18.80;101030.00;;;;4994003;28;20199;-45
2023/01/06 09:57:04;;;;;;;0.80;0.80;;;18.10;64.70;18.80;101024.00;;;;4997730;28;20178;-44
2023/01/06 09:59:39;;;;;;;0.80;0.80;;;18.20;64.80;18.80;101009.00;;;;5016683;28;20178;-44
2023/01/06 10:02:32;;;;;;;1.27;1.00;;;18.10;64.70;18.80;101025.00;;;;5000024;28;20298;-44
2023/01/06 10:04:57;;;;;;;1.03;0.90;;;18.10;64.80;18.80;101036.00;;;;5010542;28;20187;-44
2023/01/06 10:08:09;;;;;;;0.83;0.80;;;18.10;64.90;18.80;101021.00;;;;5010949;28;20186;-46
2023/01/06 10:10:52;;;;;;;1.10;1.00;;;18.10;65.10;18.70;100950.00;;;;5010405;28;20181;-45
2023/01/06 10:14:01;;;;;;;1.10;0.90;;;18.00;65.10;18.70;101037.00;;;;4995768;28;20175;-46
2023/01/06 10:17:00;;;;;;;1.33;1.23;;;18.00;65.10;18.70;101038.00;;;;4993875;28;20251;-45
2023/01/06 10:19:58;;;;;;;1.40;1.10;;;18.00;65.20;18.70;101025.00;;;;5010703;28;20179;-45
2023/01/06 10:23:02;;;;;;;1.20;0.80;;;18.00;65.20;18.70;101023.00;;;;5012198;28;20195;-46
2023/01/06 10:25:34;;;;;;;0.67;0.67;;;17.90;65.20;18.60;101023.00;;;;4979160;28;20235;-46
2023/01/06 10:28:13;;;;;;;0.77;0.77;;;17.90;65.20;18.60;101034.00;;;;5010273;28;20165;-47
2023/01/06 10:30:51;;;;;;;0.80;0.80;;;17.90;65.20;18.60;100965.00;;;;4994979;28;20717;-45
2023/01/06 10:33:23;;;;;;;1.10;1.00;;;17.90;65.20;18.60;101042.00;;;;4993791;28;20185;-46
2023/01/06 10:35:50;;;;;;;0.83;0.67;;;17.80;65.20;18.60;101038.00;;;;4993396;28;20648;-45
2023/01/06 10:38:16;;;;;;;0.57;0.57;;;17.90;65.40;18.60;101033.00;;;;4993021;28;20186;-46
2023/01/06 10:40:41;;;;;;;0.80;0.80;;;17.80;65.20;18.60;100972.00;;;;5009932;28;20210;-46
2023/01/06 10:43:11;;;;;;;1.30;0.67;;;17.80;65.10;18.60;101030.00;;;;5009723;28;20195;-44
2023/01/06 10:45:45;;;;;;;0.60;0.60;;;17.80;66.00;18.60;101041.00;;;;5009763;28;20187;-46
2023/01/06 10:48:25;;;;;;;0.80;0.80;;;17.80;65.30;18.60;101048.00;;;;5009483;28;20196;-46
2023/01/06 10:50:51;;;;;;;0.67;0.67;;;17.70;65.20;18.60;101049.00;;;;4993159;28;20170;-45
2023/01/06 10:53:17;;;;;;;1.13;1.03;;;17.70;65.20;18.60;101035.00;;;;5009080;28;20537;-46
2023/01/06 10:55:59;;;;;;;0.87;0.87;;;17.70;65.30;18.50;101038.00;;;;5010183;28;20286;-45
2023/01/06 10:58:41;;;;;;;1.33;0.70;;;17.70;65.30;18.50;101039.00;;;;5009809;28;20553;-45
2023/01/06 11:01:15;;;;;;;1.17;1.07;;;17.70;65.50;18.50;101038.00;;;;5009690;28;20172;-46
2023/01/06 11:03:44;;;;;;;2.00;0.90;;;17.70;65.80;18.50;101047.00;;;;5009174;28;20695;-45
2023/01/06 11:06:24;;;;;;;1.23;0.80;;;17.70;65.70;18.50;100996.00;;;;4992736;28;20579;-46
2023/01/06 11:08:50;;;;;;;1.30;1.17;;;17.60;65.70;18.50;101015.00;;;;5001703;28;20885;-46